sensor_id;sensor_type;location;lat;lon;timestamp;temperature;humidity
56542;DHT22;42438;53.174;6.730;2022-09-09T00:01:08;15.20;99.90
56542;DHT22;42438;53.174;6.730;2022-09-09T00:03:54;15.10;99.90
56542;DHT22;42438;53.174;6.730;2022-09-09T00:06:31;14.80;99.90
56542;DHT22;42438;53.174;6.730;2022-09-09T00:09:16;14.80;99.90
56542;DHT22;42438;53.174;6.730;2022-09-09T00:11:56;14.70;99.90
56542;DHT22;42438;53.174;6.730;2022-09-09T00:17:52;14.60;99.90
56542;DHT22;42438;53.174;6.730;2022-09-09T00:22:53;14.50;99.90
56542;DHT22;42438;53.174;6.730;2022-09-09T00:25:34;14.50;99.90
56542;DHT22;42438;53.174;6.730;2022-09-09T00:28:16;14.40;99.90
56542;DHT22;42438;53.174;6.730;2022-09-09T00:30:48;14.40;99.90
56542;DHT22;42438;53.174;6.730;2022-09-09T00:33:20;14.40;99.90
56542;DHT22;42438;53.174;6.730;2022-09-09T00:35:59;14.40;99.90
56542;DHT22;42438;53.174;6.730;2022-09-09T00:38:47;14.40;99.90
56542;DHT22;42438;53.174;6.730;2022-09-09T00:52:56;14.30;99.90
56542;DHT22;42438;53.174;6.730;2022-09-09T00:58:24;14.30;99.90
56542;DHT22;42438;53.174;6.730;2022-09-09T01:03:35;14.20;99.90
56542;DHT22;42438;53.174;6.730;2022-09-09T01:06:30;14.20;99.90
56542;DHT22;42438;53.174;6.730;2022-09-09T01:20:29;14.00;99.90
56542;DHT22;42438;53.174;6.730;2022-09-09T01:29:00;14.10;99.90
56542;DHT22;42438;53.174;6.730;2022-09-09T01:32:01;14.00;99.90
56542;DHT22;42438;53.174;6.730;2022-09-09T01:34:38;14.00;99.90
56542;DHT22;42438;53.174;6.730;2022-09-09T01:37:11;14.00;99.90
56542;DHT22;42438;53.174;6.730;2022-09-09T01:39:44;14.20;99.90
56542;DHT22;42438;53.174;6.730;2022-09-09T01:42:16;14.00;99.90
56542;DHT22;42438;53.174;6.730;2022-09-09T01:44:46;14.00;99.90
56542;DHT22;42438;53.174;6.730;2022-09-09T01:47:17;14.00;99.90
56542;DHT22;42438;53.174;6.730;2022-09-09T01:49:48;13.90;99.90
56542;DHT22;42438;53.174;6.730;2022-09-09T01:52:18;13.90;99.90
56542;DHT22;42438;53.174;6.730;2022-09-09T01:54:49;14.10;99.90
56542;DHT22;42438;53.174;6.730;2022-09-09T02:00:23;13.90;99.90
56542;DHT22;42438;53.174;6.730;2022-09-09T02:03:24;13.90;99.90
56542;DHT22;42438;53.174;6.730;2022-09-09T02:09:04;13.90;99.90
56542;DHT22;42438;53.174;6.730;2022-09-09T02:11:35;13.90;99.90
56542;DHT22;42438;53.174;6.730;2022-09-09T02:14:14;14.00;99.90
56542;DHT22;42438;53.174;6.730;2022-09-09T02:17:10;14.10;99.90
56542;DHT22;42438;53.174;6.730;2022-09-09T02:19:52;14.20;99.90
56542;DHT22;42438;53.174;6.730;2022-09-09T02:22:26;13.80;99.90
56542;DHT22;42438;53.174;6.730;2022-09-09T02:25:00;13.80;99.90
56542;DHT22;42438;53.174;6.730;2022-09-09T02:27:30;13.80;99.90
56542;DHT22;42438;53.174;6.730;2022-09-09T02:30:03;13.70;99.90
56542;DHT22;42438;53.174;6.730;2022-09-09T02:32:35;13.70;99.90
56542;DHT22;42438;53.174;6.730;2022-09-09T02:35:11;14.00;99.90
56542;DHT22;42438;53.174;6.730;2022-09-09T02:37:43;13.80;99.90
56542;DHT22;42438;53.174;6.730;2022-09-09T02:40:16;13.70;99.90
56542;DHT22;42438;53.174;6.730;2022-09-09T02:42:48;13.70;99.90
56542;DHT22;42438;53.174;6.730;2022-09-09T02:45:24;13.70;99.90
56542;DHT22;42438;53.174;6.730;2022-09-09T02:48:09;13.90;99.90
56542;DHT22;42438;53.174;6.730;2022-09-09T02:51:09;14.00;99.90
56542;DHT22;42438;53.174;6.730;2022-09-09T02:53:58;14.30;99.90
56542;DHT22;42438;53.174;6.730;2022-09-09T02:56:33;14.60;99.90
56542;DHT22;42438;53.174;6.730;2022-09-09T02:59:07;14.40;99.90
56542;DHT22;42438;53.174;6.730;2022-09-09T03:01:38;14.20;99.90
56542;DHT22;42438;53.174;6.730;2022-09-09T03:04:10;14.40;99.90
56542;DHT22;42438;53.174;6.730;2022-09-09T03:06:41;14.30;99.90
56542;DHT22;42438;53.174;6.730;2022-09-09T03:09:12;14.30;99.90
56542;DHT22;42438;53.174;6.730;2022-09-09T03:11:42;14.40;99.90
56542;DHT22;42438;53.174;6.730;2022-09-09T03:14:13;14.50;99.90
56542;DHT22;42438;53.174;6.730;2022-09-09T03:16:43;14.50;99.90
56542;DHT22;42438;53.174;6.730;2022-09-09T03:19:14;14.50;99.90
56542;DHT22;42438;53.174;6.730;2022-09-09T03:21:45;14.60;99.90
56542;DHT22;42438;53.174;6.730;2022-09-09T03:24:16;14.70;99.90
56542;DHT22;42438;53.174;6.730;2022-09-09T03:26:47;14.60;99.90
56542;DHT22;42438;53.174;6.730;2022-09-09T03:29:18;14.50;99.90
56542;DHT22;42438;53.174;6.730;2022-09-09T03:31:48;14.70;99.90
56542;DHT22;42438;53.174;6.730;2022-09-09T03:34:20;14.60;99.90
56542;DHT22;42438;53.174;6.730;2022-09-09T03:36:51;14.70;99.90
56542;DHT22;42438;53.174;6.730;2022-09-09T03:39:22;14.70;99.90
56542;DHT22;42438;53.174;6.730;2022-09-09T03:41:53;14.70;99.90
56542;DHT22;42438;53.174;6.730;2022-09-09T03:44:23;14.70;99.90
56542;DHT22;42438;53.174;6.730;2022-09-09T03:46:54;14.70;99.90
56542;DHT22;42438;53.174;6.730;2022-09-09T03:49:24;14.70;99.90
56542;DHT22;42438;53.174;6.730;2022-09-09T03:51:56;14.70;99.90
56542;DHT22;42438;53.174;6.730;2022-09-09T03:54:28;14.90;99.90
56542;DHT22;42438;53.174;6.730;2022-09-09T03:56:59;14.70;99.90
56542;DHT22;42438;53.174;6.730;2022-09-09T03:59:30;14.80;99.90
56542;DHT22;42438;53.174;6.730;2022-09-09T04:02:01;14.90;99.90
56542;DHT22;42438;53.174;6.730;2022-09-09T04:04:32;14.90;99.90
56542;DHT22;42438;53.174;6.730;2022-09-09T04:07:03;14.90;99.90
56542;DHT22;42438;53.174;6.730;2022-09-09T04:09:36;14.90;99.90
56542;DHT22;42438;53.174;6.730;2022-09-09T04:12:07;14.90;99.90
56542;DHT22;42438;53.174;6.730;2022-09-09T04:14:37;14.90;99.90
56542;DHT22;42438;53.174;6.730;2022-09-09T04:17:08;15.10;99.90
56542;DHT22;42438;53.174;6.730;2022-09-09T04:19:39;15.00;99.90
56542;DHT22;42438;53.174;6.730;2022-09-09T04:22:09;14.90;99.90
56542;DHT22;42438;53.174;6.730;2022-09-09T04:24:40;15.00;99.90
56542;DHT22;42438;53.174;6.730;2022-09-09T04:27:10;14.90;99.90
56542;DHT22;42438;53.174;6.730;2022-09-09T04:29:41;14.90;99.90
56542;DHT22;42438;53.174;6.730;2022-09-09T04:32:12;14.90;99.90
56542;DHT22;42438;53.174;6.730;2022-09-09T04:34:42;14.90;99.90
56542;DHT22;42438;53.174;6.730;2022-09-09T04:37:13;14.70;99.90
56542;DHT22;42438;53.174;6.730;2022-09-09T04:39:44;14.80;99.90
56542;DHT22;42438;53.174;6.730;2022-09-09T04:42:15;14.80;99.90
56542;DHT22;42438;53.174;6.730;2022-09-09T04:44:48;14.70;99.90
56542;DHT22;42438;53.174;6.730;2022-09-09T04:47:18;15.50;99.90
56542;DHT22;42438;53.174;6.730;2022-09-09T04:49:49;14.60;99.90
56542;DHT22;42438;53.174;6.730;2022-09-09T04:52:20;14.70;99.90
56542;DHT22;42438;53.174;6.730;2022-09-09T04:54:51;14.70;99.90
56542;DHT22;42438;53.174;6.730;2022-09-09T04:57:23;15.00;99.90
56542;DHT22;42438;53.174;6.730;2022-09-09T04:59:54;14.60;99.90
56542;DHT22;42438;53.174;6.730;2022-09-09T05:02:26;14.80;99.90
56542;DHT22;42438;53.174;6.730;2022-09-09T05:04:56;14.60;99.90
56542;DHT22;42438;53.174;6.730;2022-09-09T05:07:27;14.60;99.90
56542;DHT22;42438;53.174;6.730;2022-09-09T05:09:59;14.40;99.90
56542;DHT22;42438;53.174;6.730;2022-09-09T05:12:29;14.40;99.90
56542;DHT22;42438;53.174;6.730;2022-09-09T05:15:00;14.60;99.90
56542;DHT22;42438;53.174;6.730;2022-09-09T05:17:31;14.70;99.90
56542;DHT22;42438;53.174;6.730;2022-09-09T05:20:01;14.40;99.90
56542;DHT22;42438;53.174;6.730;2022-09-09T05:22:34;14.40;99.90
56542;DHT22;42438;53.174;6.730;2022-09-09T05:25:04;14.60;99.90
56542;DHT22;42438;53.174;6.730;2022-09-09T05:27:35;14.40;99.90
56542;DHT22;42438;53.174;6.730;2022-09-09T05:30:06;14.50;99.90
56542;DHT22;42438;53.174;6.730;2022-09-09T05:32:37;14.40;99.90
56542;DHT22;42438;53.174;6.730;2022-09-09T05:35:07;14.40;99.90
56542;DHT22;42438;53.174;6.730;2022-09-09T05:37:38;14.40;99.90
56542;DHT22;42438;53.174;6.730;2022-09-09T05:40:10;14.40;99.90
56542;DHT22;42438;53.174;6.730;2022-09-09T05:42:41;14.30;99.90
56542;DHT22;42438;53.174;6.730;2022-09-09T05:45:12;14.50;99.90
56542;DHT22;42438;53.174;6.730;2022-09-09T05:47:42;14.40;99.90
56542;DHT22;42438;53.174;6.730;2022-09-09T05:50:13;14.40;99.90
56542;DHT22;42438;53.174;6.730;2022-09-09T05:52:45;14.60;99.90
56542;DHT22;42438;53.174;6.730;2022-09-09T05:55:15;14.90;99.90
56542;DHT22;42438;53.174;6.730;2022-09-09T05:57:49;14.60;99.90
56542;DHT22;42438;53.174;6.730;2022-09-09T06:00:20;14.60;99.90
56542;DHT22;42438;53.174;6.730;2022-09-09T06:02:52;14.50;99.90
56542;DHT22;42438;53.174;6.730;2022-09-09T06:05:23;14.40;99.90
56542;DHT22;42438;53.174;6.730;2022-09-09T06:07:55;14.50;99.90
56542;DHT22;42438;53.174;6.730;2022-09-09T06:10:26;14.40;99.90
56542;DHT22;42438;53.174;6.730;2022-09-09T06:12:56;14.60;99.90
56542;DHT22;42438;53.174;6.730;2022-09-09T06:15:27;14.50;99.90
56542;DHT22;42438;53.174;6.730;2022-09-09T06:17:57;14.50;99.90
56542;DHT22;42438;53.174;6.730;2022-09-09T06:20:28;14.80;99.90
56542;DHT22;42438;53.174;6.730;2022-09-09T06:23:00;14.50;99.90
56542;DHT22;42438;53.174;6.730;2022-09-09T06:25:31;14.50;99.90
56542;DHT22;42438;53.174;6.730;2022-09-09T06:28:04;14.50;99.90
56542;DHT22;42438;53.174;6.730;2022-09-09T06:30:35;14.50;99.90
56542;DHT22;42438;53.174;6.730;2022-09-09T06:33:06;14.70;99.90
56542;DHT22;42438;53.174;6.730;2022-09-09T06:35:37;14.60;99.90
56542;DHT22;42438;53.174;6.730;2022-09-09T06:38:07;14.90;99.90
56542;DHT22;42438;53.174;6.730;2022-09-09T06:40:38;14.80;99.90
56542;DHT22;42438;53.174;6.730;2022-09-09T06:43:10;14.70;99.90
56542;DHT22;42438;53.174;6.730;2022-09-09T06:45:40;14.70;99.90
56542;DHT22;42438;53.174;6.730;2022-09-09T06:48:11;14.80;99.90
56542;DHT22;42438;53.174;6.730;2022-09-09T06:50:41;14.70;99.90
56542;DHT22;42438;53.174;6.730;2022-09-09T06:53:16;15.00;99.90
56542;DHT22;42438;53.174;6.730;2022-09-09T06:55:47;15.00;99.90
56542;DHT22;42438;53.174;6.730;2022-09-09T06:58:18;14.90;99.90
56542;DHT22;42438;53.174;6.730;2022-09-09T07:00:49;15.30;99.90
56542;DHT22;42438;53.174;6.730;2022-09-09T07:03:20;15.30;99.90
56542;DHT22;42438;53.174;6.730;2022-09-09T07:05:57;15.20;99.90
56542;DHT22;42438;53.174;6.730;2022-09-09T07:08:28;15.40;99.90
56542;DHT22;42438;53.174;6.730;2022-09-09T07:11:07;15.40;99.90
56542;DHT22;42438;53.174;6.730;2022-09-09T07:13:38;15.30;99.90
56542;DHT22;42438;53.174;6.730;2022-09-09T07:16:11;15.50;99.90
56542;DHT22;42438;53.174;6.730;2022-09-09T07:18:43;15.50;99.90
56542;DHT22;42438;53.174;6.730;2022-09-09T07:21:14;15.40;99.90
56542;DHT22;42438;53.174;6.730;2022-09-09T07:23:45;15.60;99.90
56542;DHT22;42438;53.174;6.730;2022-09-09T07:26:17;15.70;99.90
56542;DHT22;42438;53.174;6.730;2022-09-09T07:28:49;15.70;99.90
56542;DHT22;42438;53.174;6.730;2022-09-09T07:31:26;16.10;99.90
56542;DHT22;42438;53.174;6.730;2022-09-09T07:33:57;15.90;99.90
56542;DHT22;42438;53.174;6.730;2022-09-09T07:36:32;16.10;99.90
56542;DHT22;42438;53.174;6.730;2022-09-09T07:39:10;16.30;99.90
56542;DHT22;42438;53.174;6.730;2022-09-09T07:41:44;16.20;99.90
56542;DHT22;42438;53.174;6.730;2022-09-09T07:44:22;16.50;99.90
56542;DHT22;42438;53.174;6.730;2022-09-09T07:46:53;16.50;99.90
56542;DHT22;42438;53.174;6.730;2022-09-09T07:49:23;16.40;99.90
56542;DHT22;42438;53.174;6.730;2022-09-09T07:51:54;16.50;99.90
56542;DHT22;42438;53.174;6.730;2022-09-09T07:54:25;16.50;99.90
56542;DHT22;42438;53.174;6.730;2022-09-09T07:56:56;16.60;99.90
56542;DHT22;42438;53.174;6.730;2022-09-09T07:59:27;16.70;99.90
56542;DHT22;42438;53.174;6.730;2022-09-09T08:02:00;16.70;99.90
56542;DHT22;42438;53.174;6.730;2022-09-09T08:04:30;16.70;99.90
56542;DHT22;42438;53.174;6.730;2022-09-09T08:07:01;17.20;99.90
56542;DHT22;42438;53.174;6.730;2022-09-09T08:09:33;16.80;99.90
56542;DHT22;42438;53.174;6.730;2022-09-09T08:12:04;16.80;99.90
56542;DHT22;42438;53.174;6.730;2022-09-09T08:14:36;16.90;99.90
56542;DHT22;42438;53.174;6.730;2022-09-09T08:17:08;16.90;99.90
56542;DHT22;42438;53.174;6.730;2022-09-09T08:19:38;17.00;99.90
56542;DHT22;42438;53.174;6.730;2022-09-09T08:22:09;17.10;99.90
56542;DHT22;42438;53.174;6.730;2022-09-09T08:24:40;17.30;99.90
56542;DHT22;42438;53.174;6.730;2022-09-09T08:27:11;17.20;99.90
56542;DHT22;42438;53.174;6.730;2022-09-09T08:29:41;17.40;99.90
56542;DHT22;42438;53.174;6.730;2022-09-09T08:32:13;17.30;99.90
56542;DHT22;42438;53.174;6.730;2022-09-09T08:34:43;17.50;99.90
56542;DHT22;42438;53.174;6.730;2022-09-09T08:37:14;17.60;99.90
56542;DHT22;42438;53.174;6.730;2022-09-09T08:39:44;17.60;99.90
56542;DHT22;42438;53.174;6.730;2022-09-09T08:45:16;17.90;99.90
56542;DHT22;42438;53.174;6.730;2022-09-09T08:48:13;18.10;99.90
56542;DHT22;42438;53.174;6.730;2022-09-09T08:50:49;18.30;99.90
56542;DHT22;42438;53.174;6.730;2022-09-09T08:53:23;18.30;99.90
56542;DHT22;42438;53.174;6.730;2022-09-09T08:55:58;18.30;99.90
56542;DHT22;42438;53.174;6.730;2022-09-09T08:58:34;18.40;99.90
56542;DHT22;42438;53.174;6.730;2022-09-09T09:01:14;18.30;99.90
56542;DHT22;42438;53.174;6.730;2022-09-09T09:07:16;18.30;99.90
56542;DHT22;42438;53.174;6.730;2022-09-09T09:12:41;18.30;99.90
56542;DHT22;42438;53.174;6.730;2022-09-09T09:17:51;18.30;99.90
56542;DHT22;42438;53.174;6.730;2022-09-09T09:20:51;18.20;99.90
56542;DHT22;42438;53.174;6.730;2022-09-09T09:23:28;18.30;99.90
56542;DHT22;42438;53.174;6.730;2022-09-09T09:26:01;18.30;99.90
56542;DHT22;42438;53.174;6.730;2022-09-09T09:28:32;18.30;99.90
56542;DHT22;42438;53.174;6.730;2022-09-09T09:31:09;18.50;99.90
56542;DHT22;42438;53.174;6.730;2022-09-09T09:36:11;18.50;99.90
56542;DHT22;42438;53.174;6.730;2022-09-09T09:38:59;18.50;99.90
56542;DHT22;42438;53.174;6.730;2022-09-09T09:41:32;18.50;99.90
56542;DHT22;42438;53.174;6.730;2022-09-09T09:44:04;18.70;99.90
56542;DHT22;42438;53.174;6.730;2022-09-09T09:46:35;19.10;99.90
56542;DHT22;42438;53.174;6.730;2022-09-09T09:49:09;19.40;99.90
56542;DHT22;42438;53.174;6.730;2022-09-09T09:51:40;19.50;99.90
56542;DHT22;42438;53.174;6.730;2022-09-09T09:56:46;19.50;99.90
56542;DHT22;42438;53.174;6.730;2022-09-09T09:59:34;19.60;99.90
56542;DHT22;42438;53.174;6.730;2022-09-09T10:02:26;19.60;99.90
56542;DHT22;42438;53.174;6.730;2022-09-09T10:05:18;19.40;99.90
56542;DHT22;42438;53.174;6.730;2022-09-09T10:08:05;19.30;99.90
56542;DHT22;42438;53.174;6.730;2022-09-09T10:19:00;19.30;99.90
56542;DHT22;42438;53.174;6.730;2022-09-09T10:21:57;19.60;99.90
56542;DHT22;42438;53.174;6.730;2022-09-09T10:30:34;20.40;99.90
56542;DHT22;42438;53.174;6.730;2022-09-09T10:33:18;20.40;99.90
56542;DHT22;42438;53.174;6.730;2022-09-09T10:38:42;20.30;99.90
56542;DHT22;42438;53.174;6.730;2022-09-09T10:41:59;20.10;99.90
56542;DHT22;42438;53.174;6.730;2022-09-09T10:47:49;20.60;99.90
56542;DHT22;42438;53.174;6.730;2022-09-09T10:50:41;20.80;99.90
56542;DHT22;42438;53.174;6.730;2022-09-09T10:56:01;21.10;99.90
56542;DHT22;42438;53.174;6.730;2022-09-09T10:58:55;21.00;99.90
56542;DHT22;42438;53.174;6.730;2022-09-09T11:01:35;21.20;99.90
56542;DHT22;42438;53.174;6.730;2022-09-09T11:06:54;21.40;99.90
56542;DHT22;42438;53.174;6.730;2022-09-09T11:09:29;21.40;99.90
56542;DHT22;42438;53.174;6.730;2022-09-09T11:12:01;21.40;99.90
56542;DHT22;42438;53.174;6.730;2022-09-09T11:14:57;21.40;99.90
56542;DHT22;42438;53.174;6.730;2022-09-09T11:17:44;21.30;99.90
56542;DHT22;42438;53.174;6.730;2022-09-09T11:20:17;21.20;99.90
56542;DHT22;42438;53.174;6.730;2022-09-09T11:22:58;21.20;99.90
56542;DHT22;42438;53.174;6.730;2022-09-09T11:25:40;21.40;99.90
56542;DHT22;42438;53.174;6.730;2022-09-09T11:31:46;21.70;99.90
56542;DHT22;42438;53.174;6.730;2022-09-09T11:42:24;21.90;99.90
56542;DHT22;42438;53.174;6.730;2022-09-09T11:44:54;21.90;99.90
56542;DHT22;42438;53.174;6.730;2022-09-09T11:47:29;22.00;99.90
56542;DHT22;42438;53.174;6.730;2022-09-09T11:52:47;22.00;99.90
56542;DHT22;42438;53.174;6.730;2022-09-09T11:55:29;21.90;99.90
56542;DHT22;42438;53.174;6.730;2022-09-09T12:03:46;21.70;99.90
56542;DHT22;42438;53.174;6.730;2022-09-09T12:06:30;21.60;99.90
56542;DHT22;42438;53.174;6.730;2022-09-09T12:09:25;21.50;99.90
56542;DHT22;42438;53.174;6.730;2022-09-09T12:14:55;21.20;99.90
56542;DHT22;42438;53.174;6.730;2022-09-09T12:17:28;21.10;99.90
56542;DHT22;42438;53.174;6.730;2022-09-09T12:20:36;21.10;99.90
56542;DHT22;42438;53.174;6.730;2022-09-09T12:28:27;21.70;99.90
56542;DHT22;42438;53.174;6.730;2022-09-09T12:31:24;21.70;99.90
56542;DHT22;42438;53.174;6.730;2022-09-09T12:34:25;21.60;99.90
56542;DHT22;42438;53.174;6.730;2022-09-09T12:36:58;21.50;99.90
56542;DHT22;42438;53.174;6.730;2022-09-09T12:39:48;21.60;99.90
56542;DHT22;42438;53.174;6.730;2022-09-09T12:42:21;21.70;99.90
56542;DHT22;42438;53.174;6.730;2022-09-09T12:44:56;21.80;99.90
56542;DHT22;42438;53.174;6.730;2022-09-09T12:47:43;21.80;99.90
56542;DHT22;42438;53.174;6.730;2022-09-09T12:50:19;21.80;99.90
56542;DHT22;42438;53.174;6.730;2022-09-09T12:52:56;21.90;99.90
56542;DHT22;42438;53.174;6.730;2022-09-09T12:55:31;21.90;99.90
56542;DHT22;42438;53.174;6.730;2022-09-09T12:58:05;22.10;99.90
56542;DHT22;42438;53.174;6.730;2022-09-09T13:00:36;22.20;99.90
56542;DHT22;42438;53.174;6.730;2022-09-09T13:03:17;22.20;99.90
56542;DHT22;42438;53.174;6.730;2022-09-09T13:05:49;22.20;99.90
56542;DHT22;42438;53.174;6.730;2022-09-09T13:08:20;22.20;99.90
56542;DHT22;42438;53.174;6.730;2022-09-09T13:11:03;22.40;99.90
56542;DHT22;42438;53.174;6.730;2022-09-09T13:13:38;22.50;99.90
56542;DHT22;42438;53.174;6.730;2022-09-09T13:16:31;22.40;99.90
56542;DHT22;42438;53.174;6.730;2022-09-09T13:19:10;22.40;99.90
56542;DHT22;42438;53.174;6.730;2022-09-09T13:21:44;22.30;99.90
56542;DHT22;42438;53.174;6.730;2022-09-09T13:24:33;22.50;99.90
56542;DHT22;42438;53.174;6.730;2022-09-09T13:27:30;22.60;99.90
56542;DHT22;42438;53.174;6.730;2022-09-09T13:30:18;22.50;99.90
56542;DHT22;42438;53.174;6.730;2022-09-09T13:36:09;22.50;99.80
56542;DHT22;42438;53.174;6.730;2022-09-09T13:38:52;22.40;99.20
56542;DHT22;42438;53.174;6.730;2022-09-09T13:41:46;22.50;99.90
56542;DHT22;42438;53.174;6.730;2022-09-09T13:44:25;22.40;99.50
56542;DHT22;42438;53.174;6.730;2022-09-09T13:49:34;22.10;99.80
56542;DHT22;42438;53.174;6.730;2022-09-09T13:52:15;21.80;99.90
56542;DHT22;42438;53.174;6.730;2022-09-09T13:54:50;21.50;99.90
56542;DHT22;42438;53.174;6.730;2022-09-09T13:57:23;21.30;99.90
56542;DHT22;42438;53.174;6.730;2022-09-09T13:59:55;21.00;99.90
56542;DHT22;42438;53.174;6.730;2022-09-09T14:02:26;20.70;99.90
56542;DHT22;42438;53.174;6.730;2022-09-09T14:04:57;20.50;99.90
56542;DHT22;42438;53.174;6.730;2022-09-09T14:07:27;20.50;99.90
56542;DHT22;42438;53.174;6.730;2022-09-09T14:09:59;20.50;99.90
56542;DHT22;42438;53.174;6.730;2022-09-09T14:12:30;20.70;99.90
56542;DHT22;42438;53.174;6.730;2022-09-09T14:15:01;21.00;99.90
56542;DHT22;42438;53.174;6.730;2022-09-09T14:17:32;21.30;99.90
56542;DHT22;42438;53.174;6.730;2022-09-09T14:20:04;21.40;99.90
56542;DHT22;42438;53.174;6.730;2022-09-09T14:22:39;21.50;99.90
56542;DHT22;42438;53.174;6.730;2022-09-09T14:25:10;21.40;99.90
56542;DHT22;42438;53.174;6.730;2022-09-09T14:27:41;21.40;99.90
56542;DHT22;42438;53.174;6.730;2022-09-09T14:30:12;21.40;99.90
56542;DHT22;42438;53.174;6.730;2022-09-09T14:32:43;21.40;99.90
56542;DHT22;42438;53.174;6.730;2022-09-09T14:35:14;21.30;99.90
56542;DHT22;42438;53.174;6.730;2022-09-09T14:37:44;21.30;99.90
56542;DHT22;42438;53.174;6.730;2022-09-09T14:40:15;21.20;99.90
56542;DHT22;42438;53.174;6.730;2022-09-09T14:42:47;21.10;99.90
56542;DHT22;42438;53.174;6.730;2022-09-09T14:45:17;21.00;99.90
56542;DHT22;42438;53.174;6.730;2022-09-09T14:47:49;20.80;99.90
56542;DHT22;42438;53.174;6.730;2022-09-09T14:50:20;20.60;99.90
56542;DHT22;42438;53.174;6.730;2022-09-09T14:52:51;20.40;99.90
56542;DHT22;42438;53.174;6.730;2022-09-09T14:55:21;20.10;99.90
56542;DHT22;42438;53.174;6.730;2022-09-09T14:57:52;19.90;99.90
56542;DHT22;42438;53.174;6.730;2022-09-09T15:00:23;19.80;99.90
56542;DHT22;42438;53.174;6.730;2022-09-09T15:02:55;19.70;99.90
56542;DHT22;42438;53.174;6.730;2022-09-09T15:05:26;19.80;99.90
56542;DHT22;42438;53.174;6.730;2022-09-09T15:07:58;20.10;99.90
56542;DHT22;42438;53.174;6.730;2022-09-09T15:10:29;20.50;99.90
56542;DHT22;42438;53.174;6.730;2022-09-09T15:13:01;20.70;99.90
56542;DHT22;42438;53.174;6.730;2022-09-09T15:15:33;21.10;99.90
56542;DHT22;42438;53.174;6.730;2022-09-09T15:18:05;21.10;99.90
56542;DHT22;42438;53.174;6.730;2022-09-09T15:20:35;21.10;99.90
56542;DHT22;42438;53.174;6.730;2022-09-09T15:23:07;21.20;99.90
56542;DHT22;42438;53.174;6.730;2022-09-09T15:25:50;21.20;99.90
56542;DHT22;42438;53.174;6.730;2022-09-09T15:28:22;21.30;99.90
56542;DHT22;42438;53.174;6.730;2022-09-09T15:30:54;21.60;99.90
56542;DHT22;42438;53.174;6.730;2022-09-09T15:33:25;21.70;99.90
56542;DHT22;42438;53.174;6.730;2022-09-09T15:35:55;21.60;99.90
56542;DHT22;42438;53.174;6.730;2022-09-09T15:38:26;21.50;99.90
56542;DHT22;42438;53.174;6.730;2022-09-09T15:40:57;21.40;99.90
56542;DHT22;42438;53.174;6.730;2022-09-09T15:43:28;21.40;99.90
56542;DHT22;42438;53.174;6.730;2022-09-09T15:46:09;21.50;99.90
56542;DHT22;42438;53.174;6.730;2022-09-09T15:48:53;21.50;99.90
56542;DHT22;42438;53.174;6.730;2022-09-09T15:51:25;21.40;99.90
56542;DHT22;42438;53.174;6.730;2022-09-09T15:53:57;21.40;99.90
56542;DHT22;42438;53.174;6.730;2022-09-09T15:56:29;21.50;99.90
56542;DHT22;42438;53.174;6.730;2022-09-09T15:59:03;21.60;99.90
56542;DHT22;42438;53.174;6.730;2022-09-09T16:01:34;21.60;99.90
56542;DHT22;42438;53.174;6.730;2022-09-09T16:04:05;21.50;99.90
56542;DHT22;42438;53.174;6.730;2022-09-09T16:06:37;21.40;99.90
56542;DHT22;42438;53.174;6.730;2022-09-09T16:09:08;21.30;99.90
56542;DHT22;42438;53.174;6.730;2022-09-09T16:11:38;21.20;99.90
56542;DHT22;42438;53.174;6.730;2022-09-09T16:14:09;21.00;99.90
56542;DHT22;42438;53.174;6.730;2022-09-09T16:16:42;20.70;99.90
56542;DHT22;42438;53.174;6.730;2022-09-09T16:19:12;20.50;99.90
56542;DHT22;42438;53.174;6.730;2022-09-09T16:21:45;20.30;99.90
56542;DHT22;42438;53.174;6.730;2022-09-09T16:24:18;20.20;99.90
56542;DHT22;42438;53.174;6.730;2022-09-09T16:26:52;20.10;99.90
56542;DHT22;42438;53.174;6.730;2022-09-09T16:29:22;19.90;99.90
56542;DHT22;42438;53.174;6.730;2022-09-09T16:31:55;19.80;99.90
56542;DHT22;42438;53.174;6.730;2022-09-09T16:34:25;19.80;99.90
56542;DHT22;42438;53.174;6.730;2022-09-09T16:36:56;19.80;99.90
56542;DHT22;42438;53.174;6.730;2022-09-09T16:39:26;19.90;99.90
56542;DHT22;42438;53.174;6.730;2022-09-09T16:41:57;19.90;99.90
56542;DHT22;42438;53.174;6.730;2022-09-09T16:44:28;19.90;99.90
56542;DHT22;42438;53.174;6.730;2022-09-09T16:46:58;19.80;99.90
56542;DHT22;42438;53.174;6.730;2022-09-09T16:49:30;19.70;99.90
56542;DHT22;42438;53.174;6.730;2022-09-09T16:52:01;19.60;99.90
56542;DHT22;42438;53.174;6.730;2022-09-09T16:54:31;19.50;99.90
56542;DHT22;42438;53.174;6.730;2022-09-09T16:57:02;19.40;99.90
56542;DHT22;42438;53.174;6.730;2022-09-09T16:59:33;19.30;99.90
56542;DHT22;42438;53.174;6.730;2022-09-09T17:02:03;19.10;99.90
56542;DHT22;42438;53.174;6.730;2022-09-09T17:04:35;19.10;99.90
56542;DHT22;42438;53.174;6.730;2022-09-09T17:07:05;19.00;99.90
56542;DHT22;42438;53.174;6.730;2022-09-09T17:09:36;18.90;99.90
56542;DHT22;42438;53.174;6.730;2022-09-09T17:12:07;18.90;99.90
56542;DHT22;42438;53.174;6.730;2022-09-09T17:14:38;18.80;99.90
56542;DHT22;42438;53.174;6.730;2022-09-09T17:17:09;18.70;99.90
56542;DHT22;42438;53.174;6.730;2022-09-09T17:19:40;18.60;99.90
56542;DHT22;42438;53.174;6.730;2022-09-09T17:22:10;18.50;99.90
56542;DHT22;42438;53.174;6.730;2022-09-09T17:24:41;18.50;99.90
56542;DHT22;42438;53.174;6.730;2022-09-09T17:27:14;18.40;99.90
56542;DHT22;42438;53.174;6.730;2022-09-09T17:29:44;18.30;99.90
56542;DHT22;42438;53.174;6.730;2022-09-09T17:32:15;18.30;99.90
56542;DHT22;42438;53.174;6.730;2022-09-09T17:34:46;18.30;99.90
56542;DHT22;42438;53.174;6.730;2022-09-09T17:37:16;18.30;99.90
56542;DHT22;42438;53.174;6.730;2022-09-09T17:39:47;18.30;99.90
56542;DHT22;42438;53.174;6.730;2022-09-09T17:42:17;18.30;99.90
56542;DHT22;42438;53.174;6.730;2022-09-09T17:44:48;18.20;99.90
56542;DHT22;42438;53.174;6.730;2022-09-09T17:47:19;18.20;99.90
56542;DHT22;42438;53.174;6.730;2022-09-09T17:49:50;18.20;99.90
56542;DHT22;42438;53.174;6.730;2022-09-09T17:52:21;18.20;99.90
56542;DHT22;42438;53.174;6.730;2022-09-09T17:54:51;18.10;99.90
56542;DHT22;42438;53.174;6.730;2022-09-09T17:57:24;18.10;99.90
56542;DHT22;42438;53.174;6.730;2022-09-09T17:59:55;18.10;99.90
56542;DHT22;42438;53.174;6.730;2022-09-09T18:02:25;18.10;99.90
56542;DHT22;42438;53.174;6.730;2022-09-09T18:04:56;18.10;99.90
56542;DHT22;42438;53.174;6.730;2022-09-09T18:07:27;18.00;99.90
56542;DHT22;42438;53.174;6.730;2022-09-09T18:09:58;18.00;99.90
56542;DHT22;42438;53.174;6.730;2022-09-09T18:12:28;18.00;99.90
56542;DHT22;42438;53.174;6.730;2022-09-09T18:15:00;18.00;99.90
56542;DHT22;42438;53.174;6.730;2022-09-09T18:17:31;17.90;99.90